createdAt,value
2019-02-21T00:00:24.222Z,4.90
2019-02-21T00:02:54.048Z,4.90
2019-02-21T00:05:22.737Z,4.80
2019-02-21T00:07:56.588Z,4.80
2019-02-21T00:10:26.723Z,4.80
2019-02-21T00:12:56.450Z,4.80
2019-02-21T00:15:26.791Z,4.80
2019-02-21T00:17:55.457Z,4.80
2019-02-21T00:20:29.712Z,4.80
2019-02-21T00:22:58.517Z,4.70
2019-02-21T00:25:27.386Z,4.70
2019-02-21T00:27:56.338Z,4.60
2019-02-21T00:30:34.935Z,4.60
2019-02-21T00:32:55.308Z,4.60
2019-02-21T00:35:24.197Z,4.40
2019-02-21T00:37:52.970Z,4.40
2019-02-21T00:40:27.345Z,4.30
2019-02-21T00:42:56.380Z,4.20
2019-02-21T00:45:25.173Z,4.30
2019-02-21T00:47:55.191Z,4.30
2019-02-21T00:50:27.317Z,4.30
2019-02-21T00:52:56.049Z,4.40
2019-02-21T00:55:27.937Z,4.30
2019-02-21T00:58:02.190Z,4.30
2019-02-21T01:00:30.958Z,4.20
2019-02-21T01:02:59.646Z,4.20
2019-02-21T01:05:30.069Z,4.20
2019-02-21T01:08:00.340Z,4.10
2019-02-21T01:10:29.263Z,4.10
2019-02-21T01:12:58.135Z,4.00
2019-02-21T01:15:32.539Z,4.00
2019-02-21T01:18:01.995Z,4.00
2019-02-21T01:20:31.829Z,4.00
2019-02-21T01:23:03.614Z,4.00
2019-02-21T01:25:34.899Z,4.00
2019-02-21T01:28:03.636Z,4.00
2019-02-21T01:30:36.512Z,4.00
2019-02-21T01:33:06.087Z,4.00
2019-02-21T01:35:37.232Z,4.00
2019-02-21T01:38:05.873Z,4.00
2019-02-21T01:40:35.379Z,3.90
2019-02-21T01:43:05.397Z,4.00
2019-02-21T01:45:35.535Z,4.00
2019-02-21T01:48:04.113Z,4.10
2019-02-21T01:50:34.191Z,4.20
2019-02-21T01:53:05.076Z,4.20
2019-02-21T01:55:35.291Z,4.20
2019-02-21T01:58:05.477Z,4.20
2019-02-21T02:00:41.180Z,4.20
2019-02-21T02:03:16.181Z,4.20
2019-02-21T02:05:46.539Z,4.10
2019-02-21T02:08:17.485Z,4.10
2019-02-21T02:10:46.236Z,4.10
2019-02-21T02:13:24.196Z,4.20
2019-02-21T02:15:47.550Z,4.10
2019-02-21T02:18:18.904Z,4.10
2019-02-21T02:20:48.019Z,4.10
2019-02-21T02:23:18.000Z,4.10
2019-02-21T02:25:47.229Z,4.10
2019-02-21T02:28:21.228Z,4.20
2019-02-21T02:30:50.427Z,4.10
2019-02-21T02:33:22.565Z,4.10
2019-02-21T02:35:51.285Z,4.20
2019-02-21T02:38:21.523Z,4.40
2019-02-21T02:40:50.314Z,4.40
2019-02-21T02:43:18.988Z,4.40
2019-02-21T02:45:47.910Z,4.40
2019-02-21T02:48:19.746Z,4.40
2019-02-21T02:50:48.598Z,4.40
2019-02-21T02:53:20.371Z,4.40
2019-02-21T02:55:50.475Z,4.40
2019-02-21T02:58:21.981Z,4.40
2019-02-21T03:00:50.613Z,4.40
2019-02-21T03:03:20.835Z,4.50
2019-02-21T03:05:51.033Z,4.50
2019-02-21T03:08:19.680Z,4.50
2019-02-21T03:10:48.843Z,4.50
2019-02-21T03:13:19.013Z,4.60
2019-02-21T03:15:50.109Z,4.70
2019-02-21T03:18:19.771Z,4.70
2019-02-21T03:20:48.559Z,4.80
2019-02-21T03:23:18.033Z,4.80
2019-02-21T03:25:46.736Z,4.80
2019-02-21T03:28:15.547Z,4.70
2019-02-21T03:30:44.345Z,4.70
2019-02-21T03:33:14.429Z,4.70
2019-02-21T03:35:43.051Z,4.80
2019-02-21T03:38:13.179Z,4.90
2019-02-21T03:40:44.984Z,4.90
2019-02-21T03:43:14.967Z,4.90
2019-02-21T03:45:43.816Z,4.90
2019-02-21T03:48:12.624Z,4.80
2019-02-21T03:50:44.340Z,4.90
2019-02-21T03:53:15.690Z,4.90
2019-02-21T03:55:48.325Z,5.00
2019-02-21T03:58:18.896Z,5.00
2019-02-21T04:00:47.701Z,5.00
2019-02-21T04:03:19.125Z,5.00
2019-02-21T04:05:49.433Z,5.00
2019-02-21T04:08:18.170Z,5.00
2019-02-21T04:10:47.269Z,5.00
2019-02-21T04:13:16.968Z,5.00
2019-02-21T04:15:46.742Z,5.00
2019-02-21T04:18:17.022Z,5.00
2019-02-21T04:20:47.665Z,5.00
2019-02-21T04:23:19.677Z,5.00
2019-02-21T04:25:48.486Z,5.00
2019-02-21T04:28:21.170Z,5.00
2019-02-21T04:30:50.430Z,5.00
2019-02-21T04:33:19.249Z,5.00
2019-02-21T04:35:48.726Z,5.10
2019-02-21T04:38:17.822Z,5.00
2019-02-21T04:40:47.659Z,5.10
2019-02-21T04:43:16.510Z,5.10
2019-02-21T04:45:45.328Z,5.20
2019-02-21T04:48:14.675Z,5.20
2019-02-21T04:50:43.547Z,5.20
2019-02-21T04:53:14.497Z,5.20
2019-02-21T04:55:43.098Z,5.20
2019-02-21T04:58:11.786Z,5.10
2019-02-21T05:00:40.434Z,5.10
2019-02-21T05:03:09.940Z,5.10
2019-02-21T05:05:40.110Z,5.10
2019-02-21T05:08:08.853Z,5.10
2019-02-21T05:10:37.537Z,5.10
2019-02-21T05:13:09.294Z,5.10
2019-02-21T05:15:38.187Z,5.10
2019-02-21T05:18:10.897Z,5.10
2019-02-21T05:20:39.637Z,5.10
2019-02-21T05:23:09.799Z,4.90
2019-02-21T05:25:39.721Z,4.90
2019-02-21T05:28:27.872Z,4.90
2019-02-21T05:31:00.075Z,4.90
2019-02-21T05:33:45.538Z,4.90
2019-02-21T05:36:16.508Z,4.90
2019-02-21T05:38:48.577Z,4.90
2019-02-21T05:41:20.886Z,4.80
2019-02-21T05:44:03.750Z,4.80
2019-02-21T05:46:34.381Z,4.80
2019-02-21T05:49:05.395Z,4.80
2019-02-21T05:51:47.287Z,4.80
2019-02-21T05:54:26.089Z,4.70
2019-02-21T05:57:09.106Z,4.70
2019-02-21T06:00:07.852Z,4.70
2019-02-21T06:02:53.166Z,4.80
2019-02-21T06:05:22.338Z,4.80
2019-02-21T06:08:02.256Z,4.80
2019-02-21T06:10:33.796Z,4.80
2019-02-21T06:13:21.880Z,4.70
2019-02-21T06:16:00.765Z,4.70
2019-02-21T06:18:37.104Z,4.90
2019-02-21T06:21:07.422Z,5.00
2019-02-21T06:23:40.385Z,4.90
2019-02-21T06:26:26.950Z,4.90
2019-02-21T06:29:02.931Z,4.90
2019-02-21T06:31:32.803Z,4.90
2019-02-21T06:34:01.712Z,5.00
2019-02-21T06:36:41.116Z,5.00
2019-02-21T06:39:10.831Z,4.90
2019-02-21T06:41:39.732Z,5.10
2019-02-21T06:44:08.828Z,5.10
2019-02-21T06:46:37.500Z,5.10
2019-02-21T06:49:10.208Z,5.20
2019-02-21T06:51:45.025Z,5.20
2019-02-21T06:54:15.312Z,5.10
2019-02-21T06:56:45.664Z,5.10
2019-02-21T06:59:14.324Z,5.10
2019-02-21T07:01:49.410Z,5.20
2019-02-21T07:04:21.193Z,5.20
2019-02-21T07:06:53.780Z,5.30
2019-02-21T07:09:24.366Z,5.30
2019-02-21T07:12:01.470Z,5.30
2019-02-21T07:14:34.437Z,5.30
2019-02-21T07:17:03.261Z,5.40
2019-02-21T07:19:43.792Z,5.40
2019-02-21T07:22:17.623Z,5.30
2019-02-21T07:24:44.597Z,5.30
2019-02-21T07:27:15.065Z,5.30
2019-02-21T07:29:46.153Z,5.40
2019-02-21T07:32:14.955Z,5.40
2019-02-21T07:35:00.360Z,5.40
2019-02-21T07:37:31.926Z,5.40
2019-02-21T07:40:03.602Z,5.40
2019-02-21T07:42:40.935Z,5.50
2019-02-21T07:45:11.287Z,5.50
2019-02-21T07:47:45.854Z,5.50
2019-02-21T07:50:17.400Z,5.50
2019-02-21T07:52:49.531Z,5.60
2019-02-21T07:55:21.092Z,5.60
2019-02-21T07:57:51.997Z,5.60
2019-02-21T08:00:21.575Z,5.60
2019-02-21T08:02:50.257Z,5.70
2019-02-21T08:05:23.790Z,5.60
2019-02-21T08:07:53.946Z,5.70
2019-02-21T08:10:33.841Z,5.70
2019-02-21T08:13:01.314Z,5.70
2019-02-21T08:15:31.275Z,5.70
2019-02-21T08:18:00.284Z,5.70
2019-02-21T08:20:34.173Z,5.80
2019-02-21T08:23:03.072Z,5.80
2019-02-21T08:25:35.960Z,5.80
2019-02-21T08:28:04.672Z,5.90
2019-02-21T08:30:36.997Z,5.90
2019-02-21T08:33:10.481Z,5.90
2019-02-21T08:35:41.932Z,6.00
2019-02-21T08:38:12.170Z,6.10
2019-02-21T08:40:42.724Z,6.10
2019-02-21T08:43:11.752Z,6.20
2019-02-21T08:45:44.140Z,6.20
2019-02-21T08:48:13.590Z,6.20
2019-02-21T08:50:44.330Z,6.20
2019-02-21T08:53:14.603Z,6.10
2019-02-21T08:55:45.288Z,6.10
2019-02-21T08:58:14.049Z,6.20
2019-02-21T09:00:43.033Z,6.20
2019-02-21T09:03:11.873Z,6.20
2019-02-21T09:05:43.409Z,6.20
2019-02-21T09:08:16.417Z,6.20
2019-02-21T09:10:42.546Z,6.20
2019-02-21T09:13:13.685Z,6.20
2019-02-21T09:15:42.483Z,6.10
2019-02-21T09:18:15.653Z,6.20
2019-02-21T09:20:47.886Z,6.20
2019-02-21T09:23:16.708Z,6.20
2019-02-21T09:25:52.661Z,6.20
2019-02-21T09:28:21.455Z,6.10
2019-02-21T09:30:51.787Z,6.20
2019-02-21T09:33:21.470Z,6.20
2019-02-21T09:35:51.106Z,6.20
2019-02-21T09:38:19.957Z,6.20
2019-02-21T09:40:48.876Z,6.20
2019-02-21T09:43:17.585Z,6.20
2019-02-21T09:45:48.396Z,6.30
2019-02-21T09:48:16.910Z,6.30
2019-02-21T09:50:47.517Z,6.30
2019-02-21T09:53:16.437Z,6.30
2019-02-21T09:55:45.200Z,6.20
2019-02-21T09:58:13.809Z,6.30
2019-02-21T10:00:42.726Z,6.40
2019-02-21T10:03:13.011Z,6.40
2019-02-21T10:05:41.762Z,6.30
2019-02-21T10:08:11.962Z,6.30
2019-02-21T10:10:40.887Z,6.40
2019-02-21T10:13:09.624Z,6.40
2019-02-21T10:15:38.351Z,6.40
2019-02-21T10:18:08.605Z,6.50
2019-02-21T10:20:38.720Z,6.50
2019-02-21T10:23:09.824Z,6.40
2019-02-21T10:25:52.532Z,6.50
2019-02-21T10:28:21.243Z,6.50
2019-02-21T10:30:55.747Z,6.60
2019-02-21T10:33:25.394Z,6.60
2019-02-21T10:35:54.471Z,6.60
2019-02-21T10:38:23.219Z,6.50
2019-02-21T10:40:52.046Z,6.60
2019-02-21T10:43:23.427Z,6.60
2019-02-21T10:45:53.800Z,6.70
2019-02-21T10:48:25.237Z,6.70
2019-02-21T10:50:54.645Z,6.60
2019-02-21T10:53:23.321Z,6.70
2019-02-21T10:55:53.503Z,6.60
2019-02-21T10:58:22.361Z,6.60
2019-02-21T11:00:51.242Z,6.60
2019-02-21T11:03:20.935Z,6.70
2019-02-21T11:05:49.677Z,6.80
2019-02-21T11:08:18.701Z,6.90
2019-02-21T11:10:47.529Z,7.00
2019-02-21T11:13:17.514Z,7.10
2019-02-21T11:15:48.038Z,7.10
2019-02-21T11:18:24.856Z,7.10
2019-02-21T11:20:56.389Z,7.10
2019-02-21T11:23:25.135Z,7.10
2019-02-21T11:25:55.111Z,7.20
2019-02-21T11:28:24.060Z,7.30
2019-02-21T11:30:55.083Z,7.20
2019-02-21T11:33:26.145Z,7.20
2019-02-21T11:35:54.954Z,7.10
2019-02-21T11:38:23.779Z,7.00
2019-02-21T11:40:53.825Z,6.90
2019-02-21T11:43:22.555Z,6.90
2019-02-21T11:45:55.218Z,6.90
2019-02-21T11:48:26.099Z,6.90
2019-02-21T11:50:55.803Z,6.80
2019-02-21T11:53:26.183Z,6.90
2019-02-21T11:55:55.720Z,6.90
2019-02-21T11:58:25.282Z,6.90
2019-02-21T12:00:54.017Z,6.90
2019-02-21T12:03:23.079Z,6.90
2019-02-21T12:05:52.525Z,6.80
2019-02-21T12:08:22.774Z,6.70
2019-02-21T12:10:51.535Z,6.70
2019-02-21T12:13:20.715Z,6.70
2019-02-21T12:15:50.425Z,6.60
2019-02-21T12:18:20.652Z,6.60
2019-02-21T12:20:50.363Z,6.60
2019-02-21T12:23:20.732Z,6.70
2019-02-21T12:25:50.539Z,6.60
2019-02-21T12:28:20.406Z,6.60
2019-02-21T12:30:50.651Z,6.70
2019-02-21T12:33:19.433Z,6.70
2019-02-21T12:35:49.177Z,6.70
2019-02-21T12:38:20.703Z,6.70
2019-02-21T12:40:50.919Z,6.60
2019-02-21T12:43:19.724Z,6.70
2019-02-21T12:45:49.563Z,6.70
2019-02-21T12:48:19.972Z,6.60
2019-02-21T12:50:48.690Z,6.60
2019-02-21T12:53:17.423Z,6.70
2019-02-21T12:55:46.347Z,6.70
2019-02-21T12:58:15.228Z,6.80
2019-02-21T13:00:45.669Z,6.80
2019-02-21T13:03:14.355Z,6.70
2019-02-21T13:05:44.626Z,6.70
2019-02-21T13:08:13.523Z,6.60
2019-02-21T13:10:43.661Z,6.60
2019-02-21T13:13:14.184Z,6.60
2019-02-21T13:15:46.143Z,6.50
2019-02-21T13:18:16.093Z,6.50
2019-02-21T13:20:45.912Z,6.50
2019-02-21T13:23:14.829Z,6.50
2019-02-21T13:25:46.260Z,6.50
2019-02-21T13:28:15.076Z,6.50
2019-02-21T13:30:48.268Z,6.50
2019-02-21T13:33:17.079Z,6.50
2019-02-21T13:35:52.582Z,6.40
2019-02-21T13:38:18.832Z,6.50
2019-02-21T13:40:49.603Z,6.40
2019-02-21T13:43:19.105Z,6.40
2019-02-21T13:45:49.386Z,6.40
2019-02-21T13:48:32.409Z,6.40
2019-02-21T13:51:01.245Z,6.40
2019-02-21T13:53:30.173Z,6.30
2019-02-21T13:56:00.935Z,6.30
2019-02-21T13:58:31.154Z,6.40
2019-02-21T14:01:02.031Z,6.30
2019-02-21T14:03:31.204Z,6.40
2019-02-21T14:06:03.508Z,6.40
2019-02-21T14:08:30.880Z,6.40
2019-02-21T14:10:59.759Z,6.30
2019-02-21T14:13:28.418Z,6.30
2019-02-21T14:16:00.591Z,6.30
2019-02-21T14:18:33.940Z,6.20
2019-02-21T14:21:04.964Z,6.20
2019-02-21T14:23:36.699Z,6.10
2019-02-21T14:26:05.587Z,6.10
2019-02-21T14:28:37.496Z,6.10
2019-02-21T14:31:09.752Z,6.10
2019-02-21T14:33:38.417Z,6.10
2019-02-21T14:36:15.566Z,6.10
2019-02-21T14:38:41.755Z,6.00
2019-02-21T14:41:11.090Z,6.10
2019-02-21T14:43:43.353Z,6.10
2019-02-21T14:46:18.464Z,6.10
2019-02-21T14:48:47.405Z,6.10
2019-02-21T14:51:16.853Z,6.10
2019-02-21T14:53:47.143Z,6.00
2019-02-21T14:56:17.043Z,6.00
2019-02-21T14:58:47.578Z,6.00
2019-02-21T15:01:19.350Z,6.00
2019-02-21T15:03:48.069Z,6.00
2019-02-21T15:06:26.795Z,6.00
2019-02-21T15:08:48.771Z,5.90
2019-02-21T15:11:21.445Z,5.90
2019-02-21T15:14:13.167Z,5.80
2019-02-21T15:16:43.352Z,5.80
2019-02-21T15:19:13.155Z,5.80
2019-02-21T15:21:44.293Z,5.80
2019-02-21T15:24:16.481Z,5.90
2019-02-21T15:26:46.843Z,5.80
2019-02-21T15:29:17.673Z,5.80
2019-02-21T15:31:49.681Z,5.70
2019-02-21T15:34:22.138Z,5.80
2019-02-21T15:36:54.053Z,5.80
2019-02-21T15:39:25.716Z,5.80
2019-02-21T15:41:59.275Z,5.80
2019-02-21T15:44:29.729Z,5.80
2019-02-21T15:47:03.375Z,5.80
2019-02-21T15:49:34.894Z,5.80
2019-02-21T15:52:04.797Z,5.80
2019-02-21T15:54:39.096Z,5.80
2019-02-21T15:57:08.871Z,5.80
2019-02-21T15:59:40.588Z,5.80
2019-02-21T16:02:09.100Z,5.80
2019-02-21T16:04:42.290Z,5.80
2019-02-21T16:07:12.473Z,5.80
2019-02-21T16:09:42.066Z,5.90
2019-02-21T16:12:13.447Z,5.90
2019-02-21T16:14:45.430Z,5.80
2019-02-21T16:17:14.467Z,5.90
2019-02-21T16:19:46.671Z,5.80
2019-02-21T16:22:16.060Z,5.90
2019-02-21T16:24:48.037Z,5.90
2019-02-21T16:27:19.336Z,5.90
2019-02-21T16:29:52.475Z,5.80
2019-02-21T16:32:24.201Z,5.80
2019-02-21T16:34:54.320Z,5.70
2019-02-21T16:37:24.641Z,5.70
2019-02-21T16:40:00.765Z,5.70
2019-02-21T16:42:30.144Z,5.70
2019-02-21T16:44:59.900Z,5.70
2019-02-21T16:47:28.771Z,5.70
2019-02-21T16:50:03.897Z,5.70
2019-02-21T16:52:32.864Z,5.70
2019-02-21T16:55:01.639Z,5.70
2019-02-21T16:57:32.184Z,5.60
2019-02-21T17:00:02.448Z,5.60
2019-02-21T17:02:33.244Z,5.60
2019-02-21T17:05:02.016Z,5.60
2019-02-21T17:07:31.299Z,5.60
2019-02-21T17:10:03.996Z,5.50
2019-02-21T17:12:33.072Z,5.50
2019-02-21T17:15:20.892Z,5.50
2019-02-21T17:17:52.583Z,5.50
2019-02-21T17:20:24.805Z,5.50
2019-02-21T17:22:53.706Z,5.50
2019-02-21T17:25:22.645Z,5.50
2019-02-21T17:27:57.331Z,5.50
2019-02-21T17:30:26.618Z,5.50
2019-02-21T17:32:56.791Z,5.60
2019-02-21T17:35:26.759Z,5.50
2019-02-21T17:37:55.412Z,5.60
2019-02-21T17:40:26.017Z,5.60
2019-02-21T17:42:54.826Z,5.70
2019-02-21T17:45:25.234Z,5.70
2019-02-21T17:47:55.452Z,5.70
2019-02-21T17:50:26.048Z,5.70
2019-02-21T17:52:56.577Z,5.60
2019-02-21T17:55:25.716Z,5.70
2019-02-21T17:57:54.564Z,5.70
2019-02-21T18:00:40.326Z,5.70
2019-02-21T18:03:09.036Z,5.60
2019-02-21T18:05:39.200Z,5.60
2019-02-21T18:08:07.846Z,5.60
2019-02-21T18:10:42.697Z,5.60
2019-02-21T18:13:14.827Z,5.60
2019-02-21T18:15:43.596Z,5.60
2019-02-21T18:18:14.547Z,5.70
2019-02-21T18:20:43.259Z,5.70
2019-02-21T18:23:14.852Z,5.70
2019-02-21T18:25:46.842Z,5.70
2019-02-21T18:28:15.514Z,5.70
2019-02-21T18:30:47.782Z,5.70
2019-02-21T18:33:18.154Z,5.60
2019-02-21T18:35:48.684Z,5.70
2019-02-21T18:38:18.821Z,5.70
2019-02-21T18:40:49.423Z,5.70
2019-02-21T18:43:27.092Z,5.60
2019-02-21T18:45:59.308Z,5.60
2019-02-21T18:48:30.626Z,5.70
2019-02-21T18:51:00.657Z,5.70
2019-02-21T18:53:35.503Z,5.80
2019-02-21T18:56:04.524Z,5.70
2019-02-21T18:58:39.595Z,5.80
2019-02-21T19:01:10.676Z,5.80
2019-02-21T19:03:43.694Z,5.80
2019-02-21T19:06:15.441Z,5.70
2019-02-21T19:08:47.648Z,5.60
2019-02-21T19:11:21.856Z,5.60
2019-02-21T19:16:42.614Z,5.60
2019-02-21T19:19:17.141Z,5.60
2019-02-21T19:21:48.836Z,5.60
2019-02-21T19:24:22.744Z,5.60
2019-02-21T19:26:51.511Z,5.60
2019-02-21T19:29:26.261Z,5.60
2019-02-21T19:32:13.644Z,5.60
2019-02-21T19:34:42.371Z,5.60
2019-02-21T19:37:11.760Z,5.50
2019-02-21T19:39:41.591Z,5.60
2019-02-21T19:42:13.211Z,5.60
2019-02-21T19:44:51.847Z,5.60
2019-02-21T19:47:24.835Z,5.70
2019-02-21T19:49:55.594Z,5.70
2019-02-21T19:52:25.913Z,5.60
2019-02-21T19:54:55.500Z,5.60
2019-02-21T19:57:27.229Z,5.50
2019-02-21T19:59:55.998Z,5.50
2019-02-21T20:02:29.707Z,5.50
2019-02-21T20:05:00.456Z,5.50
2019-02-21T20:07:32.252Z,5.50
2019-02-21T20:10:06.741Z,5.40
2019-02-21T20:12:39.217Z,5.30
2019-02-21T20:15:12.423Z,5.20
2019-02-21T20:17:46.248Z,5.10
2019-02-21T20:20:28.347Z,5.00
2019-02-21T20:23:00.626Z,5.00
2019-02-21T20:25:32.807Z,4.90
2019-02-21T20:28:04.511Z,4.80
2019-02-21T20:30:34.967Z,4.70
2019-02-21T20:33:04.939Z,4.60
2019-02-21T20:35:37.586Z,4.50
2019-02-21T20:38:09.780Z,4.50
2019-02-21T20:40:38.957Z,4.40
2019-02-21T20:43:13.893Z,4.30
2019-02-21T20:45:52.522Z,4.30
2019-02-21T20:48:15.660Z,4.30
2019-02-21T20:50:56.182Z,4.20
2019-02-21T20:53:17.185Z,4.20
2019-02-21T20:55:46.157Z,4.10
2019-02-21T20:58:18.793Z,4.00
2019-02-21T21:00:52.696Z,3.90
2019-02-21T21:03:23.952Z,3.70
2019-02-21T21:05:53.249Z,3.70
2019-02-21T21:08:24.102Z,3.60
2019-02-21T21:10:54.269Z,3.50
2019-02-21T21:13:22.959Z,3.50
2019-02-21T21:15:52.003Z,3.40
2019-02-21T21:18:22.867Z,3.30
2019-02-21T21:20:57.001Z,3.20
2019-02-21T21:23:26.794Z,3.10
2019-02-21T21:25:57.251Z,3.00
2019-02-21T21:28:31.867Z,2.90
2019-02-21T21:31:03.747Z,2.80
2019-02-21T21:33:32.876Z,2.60
2019-02-21T21:36:04.183Z,2.50
2019-02-21T21:38:35.748Z,2.40
2019-02-21T21:41:04.495Z,2.30
2019-02-21T21:43:35.375Z,2.10
2019-02-21T21:46:08.906Z,2.00
2019-02-21T21:48:41.240Z,1.90
2019-02-21T21:51:11.592Z,1.80
2019-02-21T21:53:43.573Z,1.60
2019-02-21T21:56:17.554Z,1.50
2019-02-21T21:58:48.467Z,1.40
2019-02-21T22:01:17.181Z,1.30
2019-02-21T22:03:47.476Z,1.30
2019-02-21T22:06:19.088Z,1.20
2019-02-21T22:09:04.239Z,1.10
2019-02-21T22:11:24.213Z,1.00
2019-02-21T22:13:55.124Z,0.90
2019-02-21T22:16:27.487Z,0.90
2019-02-21T22:19:03.333Z,0.80
2019-02-21T22:21:32.762Z,0.80
2019-02-21T22:24:05.724Z,0.80
2019-02-21T22:26:40.788Z,0.80
2019-02-21T22:29:09.567Z,0.80
2019-02-21T22:31:42.653Z,0.80
2019-02-21T22:34:11.277Z,0.80
2019-02-21T22:36:39.958Z,0.80
2019-02-21T22:39:16.271Z,0.70
2019-02-21T22:41:42.345Z,0.70
2019-02-21T22:44:17.613Z,0.60
2019-02-21T22:46:45.589Z,0.60
2019-02-21T22:49:21.540Z,0.60
2019-02-21T22:51:48.868Z,0.60
2019-02-21T22:54:21.446Z,0.60
2019-02-21T22:56:55.854Z,0.60
2019-02-21T22:59:34.976Z,0.60
2019-02-21T23:02:06.545Z,0.60
2019-02-21T23:04:38.710Z,0.60
2019-02-21T23:07:25.126Z,0.60
2019-02-21T23:09:59.167Z,0.50
2019-02-21T23:12:31.851Z,0.40
2019-02-21T23:15:03.163Z,0.40
2019-02-21T23:17:33.898Z,0.40
2019-02-21T23:20:08.796Z,0.30
2019-02-21T23:22:40.674Z,0.30
2019-02-21T23:25:12.760Z,0.20
2019-02-21T23:27:41.677Z,0.20
2019-02-21T23:30:11.872Z,0.10
2019-02-21T23:32:46.755Z,0.10
2019-02-21T23:35:24.809Z,0.10
2019-02-21T23:37:54.996Z,0.10
2019-02-21T23:40:26.079Z,0.00
2019-02-21T23:42:56.577Z,0.00
2019-02-21T23:45:27.208Z,-0.10
2019-02-21T23:47:59.236Z,-0.20
2019-02-21T23:50:30.520Z,-0.20
2019-02-21T23:53:02.255Z,-0.20
2019-02-21T23:55:40.240Z,-0.30
2019-02-21T23:58:09.897Z,-0.30
